createdAt,value
2022-08-30T00:01:46.739Z,7.27
2022-08-30T00:03:52.127Z,7.35
2022-08-30T00:05:56.339Z,6.97
2022-08-30T00:07:59.895Z,6.40
2022-08-30T00:10:03.832Z,6.73
2022-08-30T00:12:06.667Z,5.87
2022-08-30T00:14:09.266Z,5.23
2022-08-30T00:16:12.536Z,5.03
2022-08-30T00:18:18.236Z,5.30
2022-08-30T00:20:25.907Z,5.10
2022-08-30T00:22:28.485Z,5.77
2022-08-30T00:24:31.107Z,6.47
2022-08-30T00:26:33.670Z,5.20
2022-08-30T00:28:37.421Z,5.17
2022-08-30T00:30:40.720Z,4.90
2022-08-30T00:32:43.724Z,5.37
2022-08-30T00:34:46.301Z,5.50
2022-08-30T00:36:48.961Z,4.85
2022-08-30T00:38:51.517Z,4.23
2022-08-30T00:40:54.307Z,4.17
2022-08-30T00:42:59.943Z,3.77
2022-08-30T00:45:14.827Z,3.93
2022-08-30T00:47:18.470Z,3.47
2022-08-30T00:49:21.085Z,3.43
2022-08-30T00:51:26.056Z,7.50
2022-08-30T00:53:35.047Z,8.40
2022-08-30T00:55:38.988Z,8.73
2022-08-30T00:57:47.083Z,8.93
2022-08-30T00:59:51.003Z,7.50
2022-08-30T01:01:53.987Z,8.47
2022-08-30T01:03:56.856Z,7.93
2022-08-30T01:06:03.193Z,6.83
2022-08-30T01:08:06.310Z,6.30
2022-08-30T01:10:12.443Z,6.90
2022-08-30T01:12:15.021Z,5.47
2022-08-30T01:14:22.156Z,5.47
2022-08-30T01:16:32.573Z,5.37
2022-08-30T01:18:36.275Z,4.63
2022-08-30T01:21:40.296Z,5.03
2022-08-30T01:23:47.469Z,5.65
2022-08-30T01:25:50.854Z,5.47
2022-08-30T01:28:04.140Z,4.97
2022-08-30T01:30:08.284Z,5.10
2022-08-30T01:32:29.178Z,4.73
2022-08-30T01:34:32.114Z,5.00
2022-08-30T01:36:37.745Z,4.37
2022-08-30T01:38:54.965Z,4.87
2022-08-30T01:41:35.082Z,5.23
2022-08-30T01:43:37.877Z,6.40
2022-08-30T01:45:41.130Z,5.00
2022-08-30T01:47:43.867Z,5.85
2022-08-30T01:49:48.078Z,4.87
2022-08-30T01:52:00.548Z,4.73
2022-08-30T01:54:04.545Z,4.28
2022-08-30T01:56:08.871Z,4.10
2022-08-30T01:58:11.751Z,4.43
2022-08-30T02:00:14.963Z,5.20
2022-08-30T02:02:21.916Z,4.30
2022-08-30T02:04:26.480Z,4.00
2022-08-30T02:06:29.368Z,4.43
2022-08-30T02:08:31.999Z,3.97
2022-08-30T02:10:37.230Z,4.22
2022-08-30T02:12:39.794Z,4.10
2022-08-30T02:14:42.526Z,3.65
2022-08-30T02:16:47.438Z,3.57
2022-08-30T02:18:52.281Z,3.47
2022-08-30T02:20:54.872Z,4.20
2022-08-30T02:23:01.159Z,3.77
2022-08-30T02:25:07.141Z,4.73
2022-08-30T02:27:21.035Z,4.40
2022-08-30T02:29:24.758Z,4.27
2022-08-30T02:31:27.337Z,4.30
2022-08-30T02:33:30.019Z,4.30
2022-08-30T02:35:32.645Z,3.73
2022-08-30T02:37:35.692Z,4.33
2022-08-30T02:39:38.312Z,4.37
2022-08-30T02:41:42.005Z,5.07
2022-08-30T02:43:44.640Z,4.53
2022-08-30T02:45:47.471Z,3.40
2022-08-30T02:47:50.258Z,4.77
2022-08-30T02:49:54.903Z,4.80
2022-08-30T02:51:57.671Z,5.30
2022-08-30T02:54:00.305Z,4.63
2022-08-30T02:56:03.298Z,4.60
2022-08-30T02:58:06.770Z,4.70
2022-08-30T03:00:13.429Z,4.73
2022-08-30T03:02:16.914Z,4.77
2022-08-30T03:04:26.668Z,4.67
2022-08-30T03:06:29.682Z,4.47
2022-08-30T03:08:33.036Z,5.10
2022-08-30T03:10:36.174Z,4.50
2022-08-30T03:12:38.775Z,4.00
2022-08-30T03:14:41.398Z,5.20
2022-08-30T03:16:43.984Z,4.70
2022-08-30T03:18:46.697Z,4.70
2022-08-30T03:20:54.524Z,5.43
2022-08-30T03:22:57.382Z,4.93
2022-08-30T03:25:01.498Z,5.10
2022-08-30T03:27:04.341Z,5.33
2022-08-30T03:29:07.196Z,5.00
2022-08-30T03:31:10.510Z,4.40
2022-08-30T03:33:13.340Z,4.40
2022-08-30T03:35:24.213Z,4.07
2022-08-30T03:37:27.853Z,4.40
2022-08-30T03:39:30.572Z,4.20
2022-08-30T03:41:33.797Z,4.13
2022-08-30T03:43:36.888Z,4.33
2022-08-30T03:45:39.826Z,3.97
2022-08-30T03:47:42.949Z,3.57
2022-08-30T03:49:45.597Z,3.83
2022-08-30T03:51:48.710Z,4.30
2022-08-30T03:53:51.352Z,5.23
2022-08-30T03:55:54.187Z,5.20
2022-08-30T03:57:58.040Z,4.80
2022-08-30T04:00:00.813Z,5.50
2022-08-30T04:02:14.107Z,4.80
2022-08-30T04:04:20.736Z,5.77
2022-08-30T04:06:24.399Z,5.30
2022-08-30T04:08:27.437Z,4.43
2022-08-30T04:10:30.063Z,4.93
2022-08-30T04:12:32.640Z,5.20
2022-08-30T04:14:35.247Z,6.87
2022-08-30T04:16:37.890Z,6.03
2022-08-30T04:18:40.641Z,5.90
2022-08-30T04:20:43.587Z,5.90
2022-08-30T04:22:46.500Z,4.70
2022-08-30T04:24:49.296Z,4.43
2022-08-30T04:26:51.951Z,3.30
2022-08-30T04:28:58.278Z,3.30
2022-08-30T04:31:01.738Z,3.40
2022-08-30T04:33:04.367Z,3.43
2022-08-30T04:35:07.667Z,3.00
2022-08-30T04:37:10.382Z,3.03
2022-08-30T04:39:13.237Z,2.30
2022-08-30T04:41:19.527Z,3.00
2022-08-30T04:43:22.166Z,2.57
2022-08-30T04:45:24.860Z,2.50
2022-08-30T04:47:27.617Z,3.07
2022-08-30T04:49:32.991Z,3.40
2022-08-30T04:51:35.590Z,2.80
2022-08-30T04:53:38.183Z,2.97
2022-08-30T04:55:42.105Z,3.40
2022-08-30T04:57:51.210Z,2.70
2022-08-30T04:59:54.642Z,2.53
2022-08-30T05:01:57.260Z,2.70
2022-08-30T05:04:00.326Z,2.13
2022-08-30T05:06:03.292Z,2.60
2022-08-30T05:08:11.600Z,2.60
2022-08-30T05:10:29.705Z,2.87
2022-08-30T05:12:32.314Z,3.33
2022-08-30T05:14:34.904Z,2.80
2022-08-30T05:16:37.827Z,3.33
2022-08-30T05:18:40.514Z,3.60
2022-08-30T05:20:43.872Z,3.97
2022-08-30T05:22:53.671Z,3.90
2022-08-30T05:24:56.959Z,4.27
2022-08-30T05:27:08.438Z,4.97
2022-08-30T05:29:11.028Z,5.80
2022-08-30T05:31:36.395Z,5.27
2022-08-30T05:33:39.096Z,5.50
2022-08-30T05:35:41.760Z,5.23
2022-08-30T05:37:44.814Z,4.53
2022-08-30T05:39:51.191Z,4.00
2022-08-30T05:41:57.836Z,4.67
2022-08-30T05:44:09.342Z,4.40
2022-08-30T05:46:14.801Z,4.20
2022-08-30T05:48:17.618Z,3.70
2022-08-30T05:50:20.629Z,4.10
2022-08-30T05:52:23.285Z,4.43
2022-08-30T05:54:25.870Z,4.70
2022-08-30T05:56:35.262Z,5.07
2022-08-30T05:58:38.522Z,5.47
2022-08-30T06:00:42.190Z,6.80
2022-08-30T06:02:45.005Z,4.33
2022-08-30T06:04:47.683Z,5.05
2022-08-30T06:06:50.290Z,3.70
2022-08-30T06:08:55.714Z,6.70
2022-08-30T06:10:58.433Z,6.40
2022-08-30T06:13:01.060Z,5.70
2022-08-30T06:15:04.180Z,5.10
2022-08-30T06:17:07.644Z,6.63
2022-08-30T06:19:15.070Z,12.80
2022-08-30T06:21:30.472Z,7.65
2022-08-30T06:23:33.387Z,7.23
2022-08-30T06:25:41.116Z,7.40
2022-08-30T06:27:44.929Z,6.10
2022-08-30T06:29:52.384Z,6.17
2022-08-30T06:31:57.456Z,6.65
2022-08-30T06:34:00.481Z,6.20
2022-08-30T06:36:12.815Z,5.40
2022-08-30T06:38:15.609Z,5.00
2022-08-30T06:40:21.793Z,5.30
2022-08-30T06:42:30.634Z,5.17
2022-08-30T06:44:33.356Z,5.10
2022-08-30T06:46:39.078Z,6.03
2022-08-30T06:48:57.216Z,6.03
2022-08-30T06:51:00.002Z,4.30
2022-08-30T06:53:05.930Z,4.43
2022-08-30T06:55:11.452Z,5.20
2022-08-30T06:57:14.175Z,4.30
2022-08-30T06:59:17.712Z,4.10
2022-08-30T07:01:25.959Z,3.77
2022-08-30T07:03:28.656Z,6.57
2022-08-30T07:05:31.461Z,5.00
2022-08-30T07:07:34.953Z,3.93
2022-08-30T07:09:43.274Z,3.67
2022-08-30T07:11:45.963Z,4.40
2022-08-30T07:13:48.581Z,4.30
2022-08-30T07:15:52.308Z,8.87
2022-08-30T07:18:13.329Z,5.97
2022-08-30T07:20:16.354Z,5.10
2022-08-30T07:22:18.938Z,5.88
2022-08-30T07:24:22.476Z,4.80
2022-08-30T07:26:55.476Z,5.17
2022-08-30T07:28:58.103Z,5.67
2022-08-30T07:31:01.013Z,5.53
2022-08-30T07:33:04.069Z,5.70
2022-08-30T07:35:07.069Z,4.80
2022-08-30T07:37:09.803Z,5.40
2022-08-30T07:39:20.892Z,4.60
2022-08-30T07:41:30.329Z,4.20
2022-08-30T07:43:34.077Z,5.20
2022-08-30T07:45:38.509Z,5.13
2022-08-30T07:47:41.579Z,5.53
2022-08-30T07:49:44.183Z,5.00
2022-08-30T07:51:46.767Z,4.33
2022-08-30T07:53:57.417Z,3.67
2022-08-30T07:56:00.033Z,3.43
2022-08-30T08:00:10.795Z,3.17
2022-08-30T08:02:16.421Z,3.10
2022-08-30T08:04:19.597Z,2.90
2022-08-30T08:06:23.574Z,2.65
2022-08-30T08:08:26.200Z,2.33
2022-08-30T08:10:28.875Z,3.50
2022-08-30T08:12:31.754Z,3.43
2022-08-30T08:14:34.943Z,5.40
2022-08-30T08:16:38.260Z,3.67
2022-08-30T08:18:40.828Z,3.40
2022-08-30T08:20:43.419Z,4.10
2022-08-30T08:22:46.087Z,4.67
2022-08-30T08:24:49.709Z,3.77
2022-08-30T08:26:52.293Z,3.27
2022-08-30T08:28:55.845Z,3.80
2022-08-30T08:30:58.424Z,3.47
2022-08-30T08:33:01.806Z,4.20
2022-08-30T08:35:04.911Z,4.53
2022-08-30T08:37:07.458Z,4.40
2022-08-30T08:39:10.363Z,4.03
2022-08-30T08:41:52.224Z,4.30
2022-08-30T08:43:54.928Z,4.50
2022-08-30T08:46:28.797Z,3.63
2022-08-30T08:49:22.569Z,4.47
2022-08-30T08:51:50.672Z,4.90
2022-08-30T08:54:34.302Z,5.03
2022-08-30T08:56:37.769Z,4.53
2022-08-30T08:59:08.420Z,4.60
2022-08-30T09:01:13.893Z,4.33
2022-08-30T09:03:18.957Z,3.70
2022-08-30T09:05:26.079Z,2.80
2022-08-30T09:07:37.460Z,2.83
2022-08-30T09:09:41.553Z,2.47
2022-08-30T09:11:44.555Z,2.30
2022-08-30T09:13:47.256Z,2.43
2022-08-30T09:18:19.348Z,3.93
2022-08-30T09:20:45.835Z,3.30
2022-08-30T09:22:48.484Z,3.00
2022-08-30T09:25:18.073Z,2.80
2022-08-30T09:27:40.026Z,2.80
2022-08-30T09:29:59.193Z,2.50
2022-08-30T09:32:22.572Z,2.73
2022-08-30T09:34:24.406Z,2.43
2022-08-30T09:36:32.910Z,2.40
2022-08-30T09:38:35.995Z,2.60
2022-08-30T09:40:51.991Z,2.30
2022-08-30T09:43:17.435Z,2.60
2022-08-30T09:45:36.559Z,1.93
2022-08-30T09:47:43.216Z,2.13
2022-08-30T09:49:45.884Z,2.20
2022-08-30T09:52:01.942Z,2.00
2022-08-30T09:55:20.731Z,2.13
2022-08-30T09:58:30.033Z,2.10
2022-08-30T10:00:41.365Z,2.10
2022-08-30T10:03:11.981Z,2.30
2022-08-30T10:05:58.685Z,1.67
2022-08-30T10:08:19.628Z,2.60
2022-08-30T10:10:34.294Z,1.87
2022-08-30T10:13:46.330Z,1.63
2022-08-30T10:15:58.782Z,1.80
2022-08-30T10:18:23.637Z,2.00
2022-08-30T10:20:31.998Z,2.00
2022-08-30T10:22:46.612Z,1.80
2022-08-30T10:25:00.786Z,2.10
2022-08-30T10:27:32.530Z,2.47
2022-08-30T10:30:05.966Z,1.90
2022-08-30T10:32:24.950Z,2.17
2022-08-30T10:34:49.669Z,2.37
2022-08-30T10:37:13.694Z,2.00
2022-08-30T10:39:32.341Z,2.00
2022-08-30T10:41:41.837Z,1.60
2022-08-30T10:43:53.850Z,1.90
2022-08-30T10:46:02.598Z,2.40
2022-08-30T10:48:20.423Z,2.93
2022-08-30T10:50:37.130Z,2.67
2022-08-30T10:52:53.282Z,2.60
2022-08-30T10:55:36.848Z,2.40
2022-08-30T10:58:31.842Z,2.57
2022-08-30T11:01:16.192Z,3.07
2022-08-30T11:03:42.989Z,2.93
2022-08-30T11:06:26.286Z,2.80
2022-08-30T11:09:09.352Z,3.17
2022-08-30T11:11:51.481Z,3.03
2022-08-30T11:13:57.253Z,2.20
2022-08-30T11:16:06.880Z,2.40
2022-08-30T11:18:09.489Z,3.40
2022-08-30T11:20:42.979Z,3.00
2022-08-30T11:23:25.628Z,3.17
2022-08-30T11:26:03.080Z,4.27
2022-08-30T11:28:06.449Z,3.20
2022-08-30T11:30:27.423Z,3.40
2022-08-30T11:33:08.340Z,4.73
2022-08-30T11:35:50.054Z,4.50
2022-08-30T11:37:52.667Z,4.90
2022-08-30T11:40:01.916Z,4.70
2022-08-30T11:42:31.818Z,4.27
2022-08-30T11:44:34.772Z,4.50
2022-08-30T11:46:41.533Z,5.00
2022-08-30T11:49:01.416Z,4.50
2022-08-30T11:51:18.418Z,5.03
2022-08-30T11:53:34.187Z,3.80
2022-08-30T11:56:33.491Z,4.73
2022-08-30T11:58:48.204Z,4.00
2022-08-30T12:01:50.252Z,3.67
2022-08-30T12:04:15.193Z,4.53
2022-08-30T12:06:40.456Z,4.83
2022-08-30T12:08:55.140Z,5.03
2022-08-30T12:11:10.933Z,4.13
2022-08-30T12:13:53.868Z,4.23
2022-08-30T12:16:05.272Z,4.93
2022-08-30T12:18:29.427Z,6.40
2022-08-30T12:20:47.984Z,3.80
2022-08-30T12:22:52.356Z,4.00
2022-08-30T12:24:55.475Z,3.80
2022-08-30T12:26:59.118Z,4.10
2022-08-30T12:29:19.503Z,2.93
2022-08-30T12:31:26.716Z,4.70
2022-08-30T12:33:41.475Z,3.53
2022-08-30T12:35:44.834Z,4.40
2022-08-30T12:38:05.430Z,3.83
2022-08-30T12:40:22.303Z,3.60
2022-08-30T12:42:30.738Z,3.80
2022-08-30T12:44:34.062Z,3.07
2022-08-30T12:46:37.080Z,3.63
2022-08-30T12:48:40.932Z,3.70
2022-08-30T12:50:54.895Z,3.00
2022-08-30T12:53:13.966Z,3.67
2022-08-30T12:55:22.771Z,2.93
2022-08-30T12:58:00.900Z,2.50
2022-08-30T13:00:08.369Z,2.97
2022-08-30T13:02:27.689Z,3.10
2022-08-30T13:04:30.375Z,2.40
2022-08-30T13:06:50.936Z,2.10
2022-08-30T13:08:54.596Z,1.63
2022-08-30T13:11:15.767Z,3.07
2022-08-30T13:13:44.332Z,3.33
2022-08-30T13:15:49.443Z,2.63
2022-08-30T13:18:30.113Z,3.00
2022-08-30T13:20:32.894Z,2.70
2022-08-30T13:22:41.818Z,2.83
2022-08-30T13:24:44.779Z,2.50
2022-08-30T13:26:48.109Z,1.97
2022-08-30T13:29:01.386Z,1.97
2022-08-30T13:31:04.025Z,2.70
2022-08-30T13:33:10.063Z,3.00
2022-08-30T13:35:13.365Z,2.20
2022-08-30T13:39:45.625Z,3.00
2022-08-30T13:41:49.804Z,2.67
2022-08-30T13:44:11.681Z,2.27
2022-08-30T13:46:17.161Z,3.47
2022-08-30T13:48:25.222Z,2.17
2022-08-30T13:50:32.526Z,1.73
2022-08-30T13:52:35.195Z,2.00
2022-08-30T13:54:37.799Z,2.80
2022-08-30T13:56:40.830Z,2.30
2022-08-30T13:58:43.499Z,2.53
2022-08-30T14:00:49.494Z,1.80
2022-08-30T14:02:57.608Z,1.83
2022-08-30T14:05:03.424Z,1.90
2022-08-30T14:07:20.015Z,2.40
2022-08-30T14:09:23.505Z,2.00
2022-08-30T14:11:26.243Z,1.53
2022-08-30T14:13:29.462Z,2.27
2022-08-30T14:15:33.415Z,1.80
2022-08-30T14:17:36.125Z,1.98
2022-08-30T14:19:38.790Z,2.13
2022-08-30T14:21:42.446Z,1.70
2022-08-30T14:23:45.731Z,1.80
2022-08-30T14:25:48.313Z,2.17
2022-08-30T14:27:53.392Z,2.27
2022-08-30T14:29:57.324Z,2.43
2022-08-30T14:32:00.542Z,2.20
2022-08-30T14:34:04.191Z,2.25
2022-08-30T14:36:15.277Z,1.87
2022-08-30T14:38:18.693Z,3.20
2022-08-30T14:40:21.987Z,2.77
2022-08-30T14:42:24.665Z,2.40
2022-08-30T14:44:27.803Z,2.47
2022-08-30T14:46:30.506Z,2.27
2022-08-30T14:49:50.937Z,2.63
2022-08-30T14:51:53.843Z,1.90
2022-08-30T14:53:56.426Z,1.80
2022-08-30T14:55:58.987Z,3.90
2022-08-30T14:58:02.142Z,2.10
2022-08-30T15:00:12.640Z,2.00
2022-08-30T15:02:15.191Z,2.73
2022-08-30T15:04:18.512Z,1.80
2022-08-30T15:06:26.340Z,3.67
2022-08-30T15:08:29.339Z,2.03
2022-08-30T15:10:32.029Z,2.60
2022-08-30T15:12:35.299Z,1.90
2022-08-30T15:14:37.952Z,2.50
2022-08-30T15:16:41.084Z,2.57
2022-08-30T15:18:44.016Z,3.10
2022-08-30T15:20:50.648Z,1.80
2022-08-30T15:22:53.525Z,1.85
2022-08-30T15:24:56.116Z,2.00
2022-08-30T15:27:00.521Z,2.83
2022-08-30T15:29:03.660Z,1.20
2022-08-30T15:31:09.604Z,1.83
2022-08-30T15:33:12.331Z,2.03
2022-08-30T15:35:15.019Z,2.00
2022-08-30T15:37:22.418Z,2.07
2022-08-30T15:39:25.122Z,1.90
2022-08-30T15:41:29.074Z,2.40
2022-08-30T15:43:32.492Z,1.90
2022-08-30T15:45:43.605Z,1.67
2022-08-30T15:47:46.584Z,1.80
2022-08-30T15:49:57.373Z,1.60
2022-08-30T15:52:04.671Z,1.80
2022-08-30T15:54:07.372Z,1.80
2022-08-30T15:56:21.103Z,1.60
2022-08-30T15:58:23.682Z,1.90
2022-08-30T16:00:26.265Z,1.57
2022-08-30T16:02:28.914Z,1.70
2022-08-30T16:04:31.745Z,2.63
2022-08-30T16:06:37.427Z,2.60
2022-08-30T16:08:41.002Z,5.00
2022-08-30T16:11:15.014Z,2.50
2022-08-30T16:13:18.198Z,2.80
2022-08-30T16:15:20.979Z,3.27
2022-08-30T16:17:24.148Z,3.57
2022-08-30T16:19:27.846Z,3.20
2022-08-30T16:21:34.162Z,3.50
2022-08-30T16:23:39.536Z,3.95
2022-08-30T16:25:42.148Z,3.60
2022-08-30T16:27:45.251Z,3.07
2022-08-30T16:29:47.949Z,3.33
2022-08-30T16:31:52.763Z,3.73
2022-08-30T16:34:02.373Z,3.30
2022-08-30T16:36:06.832Z,3.60
2022-08-30T16:38:09.416Z,6.00
2022-08-30T16:40:12.491Z,4.30
2022-08-30T16:42:20.864Z,3.40
2022-08-30T16:44:24.046Z,3.42
2022-08-30T16:46:33.391Z,3.40
2022-08-30T16:48:36.812Z,3.13
2022-08-30T16:50:43.869Z,3.80
2022-08-30T16:52:46.418Z,3.57
2022-08-30T16:54:52.253Z,3.80
2022-08-30T16:56:55.639Z,3.20
2022-08-30T16:59:01.975Z,3.63
2022-08-30T17:01:10.641Z,3.50
2022-08-30T17:03:13.778Z,3.50
2022-08-30T17:05:16.355Z,3.83
2022-08-30T17:07:22.342Z,4.07
2022-08-30T17:09:25.457Z,3.07
2022-08-30T17:11:28.234Z,4.27
2022-08-30T17:13:31.777Z,3.33
2022-08-30T17:15:35.831Z,3.27
2022-08-30T17:17:39.264Z,4.10
2022-08-30T17:20:15.890Z,4.23
2022-08-30T17:22:18.452Z,3.57
2022-08-30T17:24:24.633Z,3.73
2022-08-30T17:26:28.211Z,3.23
2022-08-30T17:28:31.101Z,3.67
2022-08-30T17:30:33.994Z,3.90
2022-08-30T17:32:36.629Z,3.80
2022-08-30T17:34:39.327Z,3.80
2022-08-30T17:36:42.388Z,4.53
2022-08-30T17:38:46.037Z,3.53
2022-08-30T17:40:48.872Z,3.60
2022-08-30T17:42:52.087Z,4.03
2022-08-30T17:44:55.147Z,3.97
2022-08-30T17:46:58.609Z,3.90
2022-08-30T17:49:03.131Z,4.43
2022-08-30T17:51:15.934Z,4.07
2022-08-30T17:53:18.597Z,4.07
2022-08-30T17:55:21.781Z,4.00
2022-08-30T17:57:25.088Z,6.33
2022-08-30T17:59:31.535Z,4.70
2022-08-30T18:01:35.439Z,4.30
2022-08-30T18:03:38.526Z,4.07
2022-08-30T18:06:05.316Z,4.70
2022-08-30T18:08:08.278Z,3.73
2022-08-30T18:10:13.421Z,3.73
2022-08-30T18:12:16.121Z,4.07
2022-08-30T18:14:26.296Z,4.13
2022-08-30T18:16:35.065Z,4.57
2022-08-30T18:19:09.532Z,4.27
2022-08-30T18:21:14.799Z,3.90
2022-08-30T18:23:17.455Z,3.40
2022-08-30T18:25:30.194Z,3.45
2022-08-30T18:27:32.841Z,3.87
2022-08-30T18:29:41.953Z,3.35
2022-08-30T18:31:45.585Z,3.87
2022-08-30T18:33:48.305Z,3.70
2022-08-30T18:35:57.204Z,3.80
2022-08-30T18:37:59.783Z,3.57
2022-08-30T18:40:03.042Z,3.42
2022-08-30T18:42:06.838Z,3.53
2022-08-30T18:44:26.743Z,3.90
2022-08-30T18:46:30.703Z,3.55
2022-08-30T18:48:35.012Z,3.50
2022-08-30T18:50:40.433Z,3.85
2022-08-30T18:52:45.074Z,3.80
2022-08-30T18:54:53.055Z,4.30
2022-08-30T18:56:56.058Z,3.90
2022-08-30T18:58:58.756Z,3.67
2022-08-30T19:01:02.439Z,4.10
2022-08-30T19:03:06.237Z,3.10
2022-08-30T19:05:08.983Z,3.70
2022-08-30T19:07:15.279Z,3.40
2022-08-30T19:09:17.855Z,3.60
2022-08-30T19:11:20.550Z,4.07
2022-08-30T19:13:23.629Z,3.00
2022-08-30T19:15:27.902Z,3.63
2022-08-30T19:17:30.794Z,3.90
2022-08-30T19:19:35.122Z,4.10
2022-08-30T19:21:39.643Z,3.83
2022-08-30T19:23:42.392Z,4.20
2022-08-30T19:25:45.310Z,3.73
2022-08-30T19:27:54.160Z,4.47
2022-08-30T19:29:57.017Z,4.77
2022-08-30T19:31:59.748Z,4.13
2022-08-30T19:34:10.045Z,3.90
2022-08-30T19:36:12.603Z,4.50
2022-08-30T19:38:15.864Z,4.00
2022-08-30T19:40:21.286Z,3.83
2022-08-30T19:42:23.993Z,3.97
2022-08-30T19:44:26.599Z,4.10
2022-08-30T19:46:30.450Z,3.77
2022-08-30T19:48:39.049Z,4.10
2022-08-30T19:50:48.927Z,4.67
2022-08-30T19:52:54.781Z,4.10
2022-08-30T19:55:02.793Z,4.33
2022-08-30T19:57:20.391Z,3.93
2022-08-30T19:59:23.164Z,4.20
2022-08-30T20:01:32.865Z,4.80
2022-08-30T20:03:38.204Z,4.50
2022-08-30T20:05:42.647Z,4.33
2022-08-30T20:07:51.158Z,4.40
2022-08-30T20:10:47.214Z,4.00
2022-08-30T20:12:50.256Z,4.00
2022-08-30T20:14:53.167Z,3.87
2022-08-30T20:16:59.436Z,4.40
2022-08-30T20:19:08.103Z,4.77
2022-08-30T20:21:13.933Z,5.00
2022-08-30T20:23:19.787Z,4.50
2022-08-30T20:25:25.257Z,3.93
2022-08-30T20:27:28.051Z,4.13
2022-08-30T20:29:30.838Z,4.30
2022-08-30T20:31:34.410Z,3.40
2022-08-30T20:33:38.170Z,3.70
2022-08-30T20:35:48.369Z,4.20
2022-08-30T20:37:51.910Z,3.47
2022-08-30T20:39:57.627Z,3.30
2022-08-30T20:42:00.269Z,3.87
2022-08-30T20:44:06.593Z,3.63
2022-08-30T20:46:19.630Z,3.30
2022-08-30T20:48:23.895Z,3.37
2022-08-30T20:50:53.678Z,3.63
2022-08-30T20:52:56.281Z,3.33
2022-08-30T20:54:58.843Z,4.10
2022-08-30T20:57:11.410Z,4.20
2022-08-30T20:59:14.977Z,3.90
2022-08-30T21:01:19.080Z,4.33
2022-08-30T21:03:29.677Z,4.13
2022-08-30T21:05:37.032Z,3.87
2022-08-30T21:07:41.072Z,4.37
2022-08-30T21:10:37.629Z,11.00
2022-08-30T21:12:40.260Z,4.40
2022-08-30T21:14:42.871Z,4.40
2022-08-30T21:16:45.532Z,4.23
2022-08-30T21:18:48.240Z,5.00
2022-08-30T21:20:50.909Z,4.77
2022-08-30T21:22:53.646Z,4.97
2022-08-30T21:24:56.370Z,4.80
2022-08-30T21:26:59.699Z,4.50
2022-08-30T21:29:02.338Z,4.50
2022-08-30T21:31:26.353Z,3.93
2022-08-30T21:33:28.989Z,4.33
2022-08-30T21:36:04.953Z,4.17
2022-08-30T21:38:08.965Z,4.40
2022-08-30T21:40:14.823Z,3.70
2022-08-30T21:42:18.393Z,4.00
2022-08-30T21:44:24.210Z,3.87
2022-08-30T21:46:29.474Z,3.70
2022-08-30T21:48:32.784Z,4.03
2022-08-30T21:50:42.190Z,5.00
2022-08-30T21:52:44.834Z,3.47
2022-08-30T21:54:48.610Z,4.60
2022-08-30T21:56:53.903Z,4.10
2022-08-30T21:58:56.783Z,3.80
2022-08-30T22:00:59.437Z,4.07
2022-08-30T22:03:02.111Z,4.30
2022-08-30T22:05:05.102Z,3.67
2022-08-30T22:07:33.120Z,3.60
2022-08-30T22:09:36.400Z,3.37
2022-08-30T22:11:39.084Z,3.90
2022-08-30T22:13:45.526Z,3.27
2022-08-30T22:15:50.712Z,3.30
2022-08-30T22:17:54.032Z,3.67
2022-08-30T22:19:56.635Z,3.13
2022-08-30T22:22:00.813Z,3.57
2022-08-30T22:24:04.915Z,3.80
2022-08-30T22:26:10.150Z,3.60
2022-08-30T22:29:03.606Z,3.80
2022-08-30T22:31:11.100Z,3.57
2022-08-30T22:33:16.221Z,3.73
2022-08-30T22:35:19.629Z,3.80
2022-08-30T22:37:22.235Z,4.10
2022-08-30T22:39:25.657Z,3.60
2022-08-30T22:41:31.639Z,3.35
2022-08-30T22:43:34.357Z,5.13
2022-08-30T22:45:38.245Z,3.72
2022-08-30T22:47:41.120Z,3.20
2022-08-30T22:49:43.876Z,3.87
2022-08-30T22:51:46.634Z,3.23
2022-08-30T22:53:50.205Z,3.50
2022-08-30T22:55:52.772Z,3.23
2022-08-30T22:57:55.396Z,3.20
2022-08-30T22:59:58.023Z,4.27
2022-08-30T23:02:00.888Z,3.30
2022-08-30T23:04:09.154Z,3.30
2022-08-30T23:06:11.763Z,3.90
2022-08-30T23:08:14.348Z,2.70
2022-08-30T23:10:17.362Z,3.30
2022-08-30T23:12:19.942Z,3.17
2022-08-30T23:14:23.315Z,2.93
2022-08-30T23:16:25.912Z,3.80
2022-08-30T23:18:28.517Z,3.10
2022-08-30T23:20:31.306Z,3.00
2022-08-30T23:22:34.007Z,3.60
2022-08-30T23:24:55.197Z,2.80
2022-08-30T23:27:17.126Z,3.00
2022-08-30T23:29:39.580Z,3.20
2022-08-30T23:32:02.576Z,3.00
2022-08-30T23:34:23.875Z,2.57
2022-08-30T23:36:44.892Z,2.90
2022-08-30T23:39:05.921Z,2.87
2022-08-30T23:41:32.223Z,4.07
2022-08-30T23:43:55.453Z,2.50
2022-08-30T23:46:19.611Z,2.60
2022-08-30T23:48:41.048Z,2.70
2022-08-30T23:51:12.013Z,2.80
2022-08-30T23:53:43.820Z,3.13
2022-08-30T23:56:05.176Z,3.03
2022-08-30T23:58:27.514Z,2.30
